This site, now in its 15th season, is a labour of love and fun from one of Ottawa's most avid time trialists and number crunchers. It adheres to and is permitted by the laws of Canada, promotes the objectives of every bicycle club whose results are shown, and is donated free of charge by myself for your enjoyment and usage. If you would like results from series you ride in to be shown here, give me (celia@drmath.ca) a shout!


Index Page
ATT OTT WTT AATT CFCTT VVVTT
Help resultformat:
Case-sensitive

OBC Open TT Series - 1994-Jun-09 - 15km (Rockliffe Pkwy) (EvtFactor = 0.8845)

Weather (18:00): Mainly Clear. Temp.: 22.9C, Humidity: 27%, DewPoint: 2.7C, Wind: WNW 19km/h, Pressure: 99.82kPa, Visibility: 40.2km.
Weather (19:00): Clear. Temp.: 21.9C, Humidity: 27%, DewPoint: 1.9C, Wind: NNW 20km/h, Pressure: 99.89kPa, Visibility: 40.2km.
Weather (20:00): Clear. Temp.: 20.5C, Humidity: 27%, DewPoint: 0.7C, Wind: NNW 17km/h, Pressure: 99.99kPa, Visibility: 40.2km.

Send photos with description (when/where/what) of yourself on or off of bike to celia@drmath.ca

 
 

BESTS?
 
1 Roy, Patrick OBC 20:20 44.262 1/70 OVAM 1/18 0.9708
2 Large, John --- 20:29 43.938 2/70 OSEM 1/25  
3 Harrington, Noel --- 21:00 42.857 3/70 OSEM 2/25 1.0582
4 Redding, Neil OBC 21:02 42.789 4/70 OVAM 2/18  
5 Timleck, Andrew --- 21:06 42.654 5/70 OSEM 3/25 1.1726
6 Bachman, Paul OBC 21:17 42.287 6/70 OSEM 4/25 1.0599
7 Boudreau, Marc --- 21:21 42.155 7/70 OSEM 5/25  
8 Georgas, Chris OBC 21:26 41.991 8/70 OVBM 1/9 0.9586
9 Hinz, Richard OBC 21:27 41.958 9/70 OVAM 3/18 0.9654
10 Hamilton, Peter --- 21:28 41.925 10/70 OSEM 6/25 1.0473
11 Toelke, Joachim --- 21:30 41.860 11/70 OSEM 7/25  
12 Aller, Brian --- 21:35 41.699 12/70 OVAM 4/18  
13 Smith, Ed --- 21:38 41.602 13/70 OSEM 8/25 0.9522
14 St-Amour, Pierre OBC 21:47 41.316 14/70 OVAM 5/18 1.0632
15 Moerman, Bram  OBC 21:50 41.221 15/70 OVBM 2/9 1.0184
16 Archambault, Marc --- 21:53 41.127 16/70 OSEM 9/25 1.0092
Johns, Mike --- 21:53 41.127 16/70 OSEM 9/25 0.9352
18 Allaire, François --- 21:58 40.971 18/70 OSEM 11/25 1.1985
19 Glover, Jim  OBC 22:02 40.847 19/70 OVAM 6/18 1.1375
20 Guenette, Jean-Yves OBC 22:06 40.724 20/70 OVAM 7/18  
21 Crawford, Neil ABC 22:08 40.663 21/70 OVAM 8/18 1.0599
22 Statchuk, Craig OBC 22:09 40.632 22/70 OVAM 9/18 0.9555
23 Lau, Michael OBC 22:13 40.510 23/70 OSEM 12/25 1.0480
24 Leroux, Paul --- 22:15 40.449 24/70 OVAM 10/18  
25 Schuck, Peter  OBC 22:23 40.208 25/70 OVAM 11/18 0.9452
26 Buffa, Alex  OBC 22:30 40.000 26/70 OSEM 13/25 0.9867
27 de Snayer, Kevin --- 22:34 39.882 27/70 OSEM 14/25  
28 Martignago, Mike OBC 22:35 39.852 28/70 OVAM 12/18 0.9802
29 Murray, Ken --- 22:58 39.187 29/70 OJUM 1/3  
30 Stewart, Rob OBC 23:11 38.821 30/70 OVAM 13/18 1.0774
31 Budd, Daniel OBC 23:12 38.793 31/70 OSEM 15/25 0.9533
32 Franks, Greg OBC 23:14 38.737 32/70 OVAM 14/18  
33 Leach, Mike --- 23:16 38.682 33/70 OSEM 16/25 0.9004
34 Romkey, Gary OBC 23:17 38.654 34/70 OVBM 3/9 1.1698
35 Somogyi, Michel OBC 23:19 38.599 35/70 OJUM 2/3 1.0792
36 White, Chris --- 23:21 38.544 36/70 OVAM 15/18  
37 Beasley, Graham --- 23:23 38.489 37/70 OVBM 4/9 1.0500
38 Humphreys, Les  OBC/ABC 23:24 38.462 38/70 OVBM 5/9 1.0172
39 Ménard, Monique OBC 23:30 38.298 39/70 OSEF 1/4 1.0085
40 Pritlove, James --- 23:34 38.190 40/70 OSEM 17/25 0.9916
41 Hartry, Corey --- 23:43 37.948 41/70 OJUM 3/3 1.1853
42 Bachman, Mike OBC 23:53 37.683 42/70 OVCM 1/2 1.0126
Moxley, Don OBC 23:53 37.683 42/70 OVBM 6/9 1.0446
44 Tamborine, Don --- 23:58 37.552 44/70 OVBM 7/9 0.9548
45 Barber, Brian --- 24:02 37.448 45/70 OSEM 18/25 1.0379
46 McKay, Shelley --- 24:03 37.422 46/70 OSEF 2/4 0.9732
47 Delisle, Stephane --- 24:10 37.241 47/70 OSEM 19/25 1.0763
48 Yip, Handson --- 24:13 37.164 48/70 OSEM 20/25  
49 Fransham, Richard OBC 24:16 37.088 49/70 OVBM 8/9 0.9140
50 Berthelet, David OBC 24:17 37.062 50/70 OVBM 9/9 0.8739
51 Aller, Mo OBC 24:27 36.810 51/70 OVCM 2/2 1.0626
Hicks, Terry --- 24:27 36.810 51/70 OVAM 16/18 1.1841
53 Bilenkey, David OBC 24:30 36.735 53/70 OSEM 21/25  
Weiman, David --- 24:30 36.735 53/70 OSEM 21/25 1.0477
55 Rendall, Reece --- 24:36 36.585 55/70 OSEM 23/25  
56 Csorgo, Lilla --- 24:42 36.437 56/70 OSEF 3/4 0.9173
57 Munden, David --- 24:48 36.290 57/70 OSEM 24/25  
58 Anderson, Allan OBC 24:55 36.120 58/70 OVAM 17/18  
59 Murray, Val OBC 24:57 36.072 59/70 OCAM 1/1  
60 Torunski, Eric --- 25:10 35.762 60/70 U18M 1/4 1.1742
61 Hays, Ryan --- 25:20 35.526 61/70 U18M 2/4  
62 Jofriet, Eric --- 25:25 35.410 62/70 OSEM 25/25 1.1271
63 Potvin, Bertrand --- 25:44 34.974 63/70 U18M 3/4  
64 James, Peter OBC 25:56 34.704 64/70 OVAM 18/18 1.0097
McInnis, Celia  OBC 25:56 34.704 64/70 OVAF 1/1 0.9544
66 Chapman, Kerry --- 25:58 34.660 66/70 OSEF 4/4 1.0710
67 Ajersch, Mary  OBC 26:10 34.395 67/70 OVBF 1/2 0.9735
68 Gray, Leona  --- 26:32 33.920 68/70 OVBF 2/2  
69 Montague, Melanie --- 26:53 33.478 69/70 XXF 1/1  
70 Somogyi, Steven --- 27:52 32.297 70/70 U18M 4/4  
 
Average Speed of all of the above 70 finishes (1050km in 27:16:50):38.489
>>>Average of the Average Speeds for these 70 finishes38.681<<<
 

The number of data records shown above is 70
The server processing of your query took: 1 wallclock secs ( 0.08 usr + 0.00 sys = 0.08 CPU)

     


Apr 1 (Good Friday) Apr 14 Apr 21 Apr 28
May 3 May 5 May 10 May 12 (22km) May 15 (40km) May 17 May 19 May 24 May 24 (10km) May 26 (cancelled) May 29 (40km)
Jun 2 Jun 5 (38km) Jun 7
  Jun 9  
Jun 14 (40km) Jun 14 Jun 16 Jun 21 Jun 21 Jun 23 Jun 26 (40km/80km) Jun 28 (40km) Jun 28 Jun 29
Jul 5 Jul 6 Jul 7 Jul 10 (22km) Jul 12 Jul 13 Jul 14 Jul 19 Jul 20 Jul 21 Jul 24 (38km) Jul 26 Jul 27 Jul 28
Aug 2 Aug 3 Aug 9 Aug 10 Aug 11 Aug 14 (40km/80km) Aug 16 Aug 17 Aug 18 Aug 20 (22km) Aug 23 Aug 24 Aug 28 (38km) Aug 30 (Invitational) Aug 31
Sep 1 Sep 6 Sep 8 Sep 13 Sep 20 Sep 25 (40km)

OTT Rankings
Best       Best by category
WTT Rankings for OBC Members
5 Best 15km     5 Best 15km by category
OBC Member Best Three 15km Rankings
Overall     by category
OBC BAR Ranking
Overall     by category     Rider "Consistency-Graph"
ABC BAR Ranking
Overall     by category     Rider "Consistency-Graph"
Other years
TT Calculator All TT People All TT events
ABC Home VVV Home
CKAP GOLD MEDAL
Other Links

Please send your comments and suggestions to: Celia McInnis
Copyright © 1998-2011 Celia McInnis. All rights reserved. Links are welcomed.